sensor_id;sensor_type;location;lat;lon;timestamp;P1;durP1;ratioP1;P2;durP2;ratioP2
11228;SDS011;5671;47.936;8.716;2023-07-02T00:01:55;2.00;;;1.50;;
11228;SDS011;5671;47.936;8.716;2023-07-02T00:04:23;3.90;;;1.70;;
11228;SDS011;5671;47.936;8.716;2023-07-02T00:06:50;1.33;;;1.27;;
11228;SDS011;5671;47.936;8.716;2023-07-02T00:09:17;1.40;;;1.30;;
11228;SDS011;5671;47.936;8.716;2023-07-02T00:11:44;1.07;;;1.00;;
11228;SDS011;5671;47.936;8.716;2023-07-02T00:14:12;1.83;;;1.60;;
11228;SDS011;5671;47.936;8.716;2023-07-02T00:16:41;1.40;;;1.23;;
11228;SDS011;5671;47.936;8.716;2023-07-02T00:19:09;1.10;;;1.10;;
11228;SDS011;5671;47.936;8.716;2023-07-02T00:21:38;2.53;;;1.30;;
11228;SDS011;5671;47.936;8.716;2023-07-02T00:24:05;1.27;;;1.27;;
11228;SDS011;5671;47.936;8.716;2023-07-02T00:26:34;1.00;;;1.00;;
11228;SDS011;5671;47.936;8.716;2023-07-02T00:29:01;1.67;;;1.07;;
11228;SDS011;5671;47.936;8.716;2023-07-02T00:31:29;2.13;;;1.10;;
11228;SDS011;5671;47.936;8.716;2023-07-02T00:33:56;1.00;;;1.00;;
11228;SDS011;5671;47.936;8.716;2023-07-02T00:36:22;1.23;;;1.07;;
11228;SDS011;5671;47.936;8.716;2023-07-02T00:38:51;1.23;;;1.23;;
11228;SDS011;5671;47.936;8.716;2023-07-02T00:41:17;1.60;;;1.50;;
11228;SDS011;5671;47.936;8.716;2023-07-02T00:43:44;1.90;;;1.40;;
11228;SDS011;5671;47.936;8.716;2023-07-02T00:46:12;1.17;;;1.07;;
11228;SDS011;5671;47.936;8.716;2023-07-02T00:48:42;1.37;;;1.37;;
11228;SDS011;5671;47.936;8.716;2023-07-02T00:51:10;1.57;;;1.47;;
11228;SDS011;5671;47.936;8.716;2023-07-02T00:53:39;2.13;;;1.53;;
11228;SDS011;5671;47.936;8.716;2023-07-02T00:56:07;1.50;;;1.40;;
11228;SDS011;5671;47.936;8.716;2023-07-02T00:58:34;1.83;;;1.73;;
11228;SDS011;5671;47.936;8.716;2023-07-02T01:01:05;1.63;;;1.40;;
11228;SDS011;5671;47.936;8.716;2023-07-02T01:03:32;1.17;;;1.07;;
11228;SDS011;5671;47.936;8.716;2023-07-02T01:06:02;1.37;;;1.30;;
11228;SDS011;5671;47.936;8.716;2023-07-02T01:08:29;1.70;;;1.30;;
11228;SDS011;5671;47.936;8.716;2023-07-02T01:10:56;1.63;;;1.50;;
11228;SDS011;5671;47.936;8.716;2023-07-02T01:13:25;1.37;;;1.27;;
11228;SDS011;5671;47.936;8.716;2023-07-02T01:15:52;1.60;;;1.50;;
11228;SDS011;5671;47.936;8.716;2023-07-02T01:18:19;1.57;;;1.30;;
11228;SDS011;5671;47.936;8.716;2023-07-02T01:20:48;1.13;;;1.13;;
11228;SDS011;5671;47.936;8.716;2023-07-02T01:23:15;1.17;;;1.13;;
11228;SDS011;5671;47.936;8.716;2023-07-02T01:25:42;1.70;;;1.40;;
11228;SDS011;5671;47.936;8.716;2023-07-02T01:28:10;2.23;;;1.60;;
11228;SDS011;5671;47.936;8.716;2023-07-02T01:30:38;1.60;;;1.50;;
11228;SDS011;5671;47.936;8.716;2023-07-02T01:33:05;1.90;;;1.30;;
11228;SDS011;5671;47.936;8.716;2023-07-02T01:35:32;1.40;;;1.30;;
11228;SDS011;5671;47.936;8.716;2023-07-02T01:38:00;1.60;;;1.50;;
11228;SDS011;5671;47.936;8.716;2023-07-02T01:40:27;1.30;;;1.27;;
11228;SDS011;5671;47.936;8.716;2023-07-02T01:42:54;1.50;;;1.40;;
11228;SDS011;5671;47.936;8.716;2023-07-02T01:45:20;1.77;;;1.67;;
11228;SDS011;5671;47.936;8.716;2023-07-02T01:47:47;4.40;;;2.03;;
11228;SDS011;5671;47.936;8.716;2023-07-02T01:50:14;2.13;;;1.80;;
11228;SDS011;5671;47.936;8.716;2023-07-02T01:52:41;2.23;;;1.60;;
11228;SDS011;5671;47.936;8.716;2023-07-02T01:55:09;4.00;;;1.87;;
11228;SDS011;5671;47.936;8.716;2023-07-02T01:57:36;3.63;;;1.40;;
11228;SDS011;5671;47.936;8.716;2023-07-02T02:00:03;2.30;;;1.77;;
11228;SDS011;5671;47.936;8.716;2023-07-02T02:02:31;2.13;;;1.80;;
11228;SDS011;5671;47.936;8.716;2023-07-02T02:04:58;2.43;;;1.70;;
11228;SDS011;5671;47.936;8.716;2023-07-02T02:07:25;1.60;;;1.50;;
11228;SDS011;5671;47.936;8.716;2023-07-02T02:09:52;1.43;;;1.33;;
11228;SDS011;5671;47.936;8.716;2023-07-02T02:12:20;1.63;;;1.53;;
11228;SDS011;5671;47.936;8.716;2023-07-02T02:14:47;2.50;;;1.60;;
11228;SDS011;5671;47.936;8.716;2023-07-02T02:17:14;1.87;;;1.57;;
11228;SDS011;5671;47.936;8.716;2023-07-02T02:19:40;1.67;;;1.40;;
11228;SDS011;5671;47.936;8.716;2023-07-02T02:22:07;1.60;;;1.50;;
11228;SDS011;5671;47.936;8.716;2023-07-02T02:24:34;1.33;;;1.33;;
11228;SDS011;5671;47.936;8.716;2023-07-02T02:27:01;1.70;;;1.60;;
11228;SDS011;5671;47.936;8.716;2023-07-02T02:29:29;2.77;;;1.60;;
11228;SDS011;5671;47.936;8.716;2023-07-02T02:31:56;1.60;;;1.50;;
11228;SDS011;5671;47.936;8.716;2023-07-02T02:34:23;4.47;;;1.80;;
11228;SDS011;5671;47.936;8.716;2023-07-02T02:36:49;2.30;;;1.90;;
11228;SDS011;5671;47.936;8.716;2023-07-02T02:39:16;2.53;;;1.73;;
11228;SDS011;5671;47.936;8.716;2023-07-02T02:41:43;3.07;;;1.87;;
11228;SDS011;5671;47.936;8.716;2023-07-02T02:44:09;2.87;;;1.70;;
11228;SDS011;5671;47.936;8.716;2023-07-02T02:46:38;1.70;;;1.60;;
11228;SDS011;5671;47.936;8.716;2023-07-02T02:49:04;1.83;;;1.73;;
11228;SDS011;5671;47.936;8.716;2023-07-02T02:51:31;1.90;;;1.80;;
11228;SDS011;5671;47.936;8.716;2023-07-02T02:53:58;4.23;;;1.77;;
11228;SDS011;5671;47.936;8.716;2023-07-02T02:56:25;4.20;;;1.70;;
11228;SDS011;5671;47.936;8.716;2023-07-02T02:58:51;1.97;;;1.60;;
11228;SDS011;5671;47.936;8.716;2023-07-02T03:01:19;2.13;;;1.50;;
11228;SDS011;5671;47.936;8.716;2023-07-02T03:03:47;2.30;;;1.80;;
11228;SDS011;5671;47.936;8.716;2023-07-02T03:06:14;3.20;;;1.90;;
11228;SDS011;5671;47.936;8.716;2023-07-02T03:08:41;1.60;;;1.50;;
11228;SDS011;5671;47.936;8.716;2023-07-02T03:11:08;2.90;;;1.63;;
11228;SDS011;5671;47.936;8.716;2023-07-02T03:13:34;2.20;;;2.00;;
11228;SDS011;5671;47.936;8.716;2023-07-02T03:16:01;3.10;;;1.73;;
11228;SDS011;5671;47.936;8.716;2023-07-02T03:18:28;1.87;;;1.70;;
11228;SDS011;5671;47.936;8.716;2023-07-02T03:20:56;2.50;;;1.80;;
11228;SDS011;5671;47.936;8.716;2023-07-02T03:23:23;1.97;;;1.80;;
11228;SDS011;5671;47.936;8.716;2023-07-02T03:25:50;2.10;;;1.80;;
11228;SDS011;5671;47.936;8.716;2023-07-02T03:28:17;2.07;;;1.90;;
11228;SDS011;5671;47.936;8.716;2023-07-02T03:30:43;1.93;;;1.83;;
11228;SDS011;5671;47.936;8.716;2023-07-02T03:33:10;2.30;;;2.10;;
11228;SDS011;5671;47.936;8.716;2023-07-02T03:35:37;2.57;;;2.37;;
11228;SDS011;5671;47.936;8.716;2023-07-02T03:38:05;4.30;;;2.17;;
11228;SDS011;5671;47.936;8.716;2023-07-02T03:40:32;2.40;;;2.20;;
11228;SDS011;5671;47.936;8.716;2023-07-02T03:42:59;2.23;;;2.13;;
11228;SDS011;5671;47.936;8.716;2023-07-02T03:45:25;2.07;;;1.90;;
11228;SDS011;5671;47.936;8.716;2023-07-02T03:47:52;2.20;;;2.00;;
11228;SDS011;5671;47.936;8.716;2023-07-02T03:50:19;1.90;;;1.80;;
11228;SDS011;5671;47.936;8.716;2023-07-02T03:52:46;3.13;;;2.07;;
11228;SDS011;5671;47.936;8.716;2023-07-02T03:55:14;2.20;;;2.10;;
11228;SDS011;5671;47.936;8.716;2023-07-02T03:57:41;2.13;;;1.97;;
11228;SDS011;5671;47.936;8.716;2023-07-02T04:00:08;4.10;;;1.77;;
11228;SDS011;5671;47.936;8.716;2023-07-02T04:02:36;2.20;;;2.03;;
11228;SDS011;5671;47.936;8.716;2023-07-02T04:05:03;7.20;;;2.90;;
11228;SDS011;5671;47.936;8.716;2023-07-02T04:07:31;3.10;;;2.60;;
11228;SDS011;5671;47.936;8.716;2023-07-02T04:09:57;4.07;;;2.40;;
11228;SDS011;5671;47.936;8.716;2023-07-02T04:12:25;3.63;;;2.20;;
11228;SDS011;5671;47.936;8.716;2023-07-02T04:14:52;2.93;;;2.63;;
11228;SDS011;5671;47.936;8.716;2023-07-02T04:17:19;2.77;;;2.20;;
11228;SDS011;5671;47.936;8.716;2023-07-02T04:19:46;2.43;;;2.30;;
11228;SDS011;5671;47.936;8.716;2023-07-02T04:22:13;2.67;;;2.47;;
11228;SDS011;5671;47.936;8.716;2023-07-02T04:24:40;3.97;;;3.07;;
11228;SDS011;5671;47.936;8.716;2023-07-02T04:27:07;3.87;;;3.27;;
11228;SDS011;5671;47.936;8.716;2023-07-02T04:29:35;4.27;;;2.50;;
11228;SDS011;5671;47.936;8.716;2023-07-02T04:32:02;3.57;;;3.00;;
11228;SDS011;5671;47.936;8.716;2023-07-02T04:34:29;3.63;;;2.80;;
11228;SDS011;5671;47.936;8.716;2023-07-02T04:36:56;4.43;;;2.90;;
11228;SDS011;5671;47.936;8.716;2023-07-02T04:39:23;4.93;;;3.27;;
11228;SDS011;5671;47.936;8.716;2023-07-02T04:41:49;5.40;;;3.43;;
11228;SDS011;5671;47.936;8.716;2023-07-02T04:44:17;5.00;;;3.53;;
11228;SDS011;5671;47.936;8.716;2023-07-02T04:46:48;3.90;;;3.50;;
11228;SDS011;5671;47.936;8.716;2023-07-02T04:49:15;5.93;;;3.63;;
11228;SDS011;5671;47.936;8.716;2023-07-02T04:51:41;3.63;;;3.30;;
11228;SDS011;5671;47.936;8.716;2023-07-02T04:54:08;4.50;;;3.70;;
11228;SDS011;5671;47.936;8.716;2023-07-02T04:56:35;4.37;;;3.93;;
11228;SDS011;5671;47.936;8.716;2023-07-02T04:59:02;5.40;;;4.03;;
11228;SDS011;5671;47.936;8.716;2023-07-02T05:01:28;4.73;;;3.80;;
11228;SDS011;5671;47.936;8.716;2023-07-02T05:03:57;4.73;;;3.70;;
11228;SDS011;5671;47.936;8.716;2023-07-02T05:06:23;8.63;;;4.17;;
11228;SDS011;5671;47.936;8.716;2023-07-02T05:08:50;7.07;;;4.10;;
11228;SDS011;5671;47.936;8.716;2023-07-02T05:11:17;6.27;;;3.67;;
11228;SDS011;5671;47.936;8.716;2023-07-02T05:13:44;6.33;;;3.87;;
11228;SDS011;5671;47.936;8.716;2023-07-02T05:16:11;8.27;;;4.67;;
11228;SDS011;5671;47.936;8.716;2023-07-02T05:18:38;6.93;;;4.17;;
11228;SDS011;5671;47.936;8.716;2023-07-02T05:21:06;7.10;;;5.00;;
11228;SDS011;5671;47.936;8.716;2023-07-02T05:23:33;7.60;;;5.10;;
11228;SDS011;5671;47.936;8.716;2023-07-02T05:26:00;7.97;;;4.70;;
11228;SDS011;5671;47.936;8.716;2023-07-02T05:28:27;5.30;;;4.80;;
11228;SDS011;5671;47.936;8.716;2023-07-02T05:30:54;7.57;;;5.77;;
11228;SDS011;5671;47.936;8.716;2023-07-02T05:33:21;6.77;;;4.87;;
11228;SDS011;5671;47.936;8.716;2023-07-02T05:35:48;9.70;;;5.93;;
11228;SDS011;5671;47.936;8.716;2023-07-02T05:38:17;11.73;;;5.80;;
11228;SDS011;5671;47.936;8.716;2023-07-02T05:40:44;10.70;;;5.93;;
11228;SDS011;5671;47.936;8.716;2023-07-02T05:43:11;6.93;;;5.37;;
11228;SDS011;5671;47.936;8.716;2023-07-02T05:45:38;10.43;;;5.63;;
11228;SDS011;5671;47.936;8.716;2023-07-02T05:48:05;6.83;;;5.40;;
11228;SDS011;5671;47.936;8.716;2023-07-02T05:50:32;7.53;;;5.90;;
11228;SDS011;5671;47.936;8.716;2023-07-02T05:52:58;8.23;;;5.47;;
11228;SDS011;5671;47.936;8.716;2023-07-02T05:55:27;7.40;;;5.83;;
11228;SDS011;5671;47.936;8.716;2023-07-02T05:57:53;9.70;;;6.60;;
11228;SDS011;5671;47.936;8.716;2023-07-02T06:00:22;10.17;;;7.00;;
11228;SDS011;5671;47.936;8.716;2023-07-02T06:02:49;12.17;;;7.40;;
11228;SDS011;5671;47.936;8.716;2023-07-02T06:05:16;11.87;;;8.30;;
11228;SDS011;5671;47.936;8.716;2023-07-02T06:07:42;9.90;;;7.77;;
11228;SDS011;5671;47.936;8.716;2023-07-02T06:10:09;9.73;;;8.40;;
11228;SDS011;5671;47.936;8.716;2023-07-02T06:12:37;11.33;;;8.83;;
11228;SDS011;5671;47.936;8.716;2023-07-02T06:15:05;10.20;;;8.17;;
11228;SDS011;5671;47.936;8.716;2023-07-02T06:17:32;12.17;;;8.83;;
11228;SDS011;5671;47.936;8.716;2023-07-02T06:19:59;13.87;;;9.77;;
11228;SDS011;5671;47.936;8.716;2023-07-02T06:22:25;15.00;;;10.20;;
11228;SDS011;5671;47.936;8.716;2023-07-02T06:24:52;13.73;;;11.20;;
11228;SDS011;5671;47.936;8.716;2023-07-02T06:27:19;16.90;;;11.50;;
11228;SDS011;5671;47.936;8.716;2023-07-02T06:29:47;17.07;;;11.23;;
11228;SDS011;5671;47.936;8.716;2023-07-02T06:32:14;16.17;;;11.00;;
11228;SDS011;5671;47.936;8.716;2023-07-02T06:34:41;16.43;;;12.50;;
11228;SDS011;5671;47.936;8.716;2023-07-02T06:37:08;14.80;;;11.33;;
11228;SDS011;5671;47.936;8.716;2023-07-02T06:39:35;17.20;;;12.10;;
11228;SDS011;5671;47.936;8.716;2023-07-02T06:42:02;17.70;;;12.13;;
11228;SDS011;5671;47.936;8.716;2023-07-02T06:44:29;17.77;;;12.97;;
11228;SDS011;5671;47.936;8.716;2023-07-02T06:46:57;16.30;;;12.33;;
11228;SDS011;5671;47.936;8.716;2023-07-02T06:49:24;17.27;;;11.97;;
11228;SDS011;5671;47.936;8.716;2023-07-02T06:51:50;17.27;;;12.60;;
11228;SDS011;5671;47.936;8.716;2023-07-02T06:54:17;16.20;;;12.47;;
11228;SDS011;5671;47.936;8.716;2023-07-02T06:56:44;18.93;;;12.73;;
11228;SDS011;5671;47.936;8.716;2023-07-02T06:59:11;16.77;;;13.73;;
11228;SDS011;5671;47.936;8.716;2023-07-02T07:01:37;16.23;;;12.43;;
11228;SDS011;5671;47.936;8.716;2023-07-02T07:04:06;19.73;;;13.60;;
11228;SDS011;5671;47.936;8.716;2023-07-02T07:06:32;17.17;;;13.20;;
11228;SDS011;5671;47.936;8.716;2023-07-02T07:09:00;15.73;;;12.83;;
11228;SDS011;5671;47.936;8.716;2023-07-02T07:11:27;16.10;;;13.93;;
11228;SDS011;5671;47.936;8.716;2023-07-02T07:13:54;18.83;;;13.50;;
11228;SDS011;5671;47.936;8.716;2023-07-02T07:16:21;18.40;;;14.40;;
11228;SDS011;5671;47.936;8.716;2023-07-02T07:18:49;19.90;;;14.67;;
11228;SDS011;5671;47.936;8.716;2023-07-02T07:21:17;18.07;;;13.97;;
11228;SDS011;5671;47.936;8.716;2023-07-02T07:23:44;16.33;;;12.60;;
11228;SDS011;5671;47.936;8.716;2023-07-02T07:26:11;16.40;;;13.13;;
11228;SDS011;5671;47.936;8.716;2023-07-02T07:28:38;19.40;;;14.20;;
11228;SDS011;5671;47.936;8.716;2023-07-02T07:31:05;19.33;;;14.43;;
11228;SDS011;5671;47.936;8.716;2023-07-02T07:33:32;19.10;;;14.53;;
11228;SDS011;5671;47.936;8.716;2023-07-02T07:35:59;17.80;;;12.90;;
11228;SDS011;5671;47.936;8.716;2023-07-02T07:38:27;17.40;;;14.00;;
11228;SDS011;5671;47.936;8.716;2023-07-02T07:40:54;19.40;;;14.40;;
11228;SDS011;5671;47.936;8.716;2023-07-02T07:43:20;21.23;;;15.20;;
11228;SDS011;5671;47.936;8.716;2023-07-02T07:45:47;19.50;;;14.27;;
11228;SDS011;5671;47.936;8.716;2023-07-02T07:48:14;19.40;;;15.80;;
11228;SDS011;5671;47.936;8.716;2023-07-02T07:50:41;21.43;;;15.13;;
11228;SDS011;5671;47.936;8.716;2023-07-02T07:53:08;20.07;;;14.47;;
11228;SDS011;5671;47.936;8.716;2023-07-02T07:55:36;20.43;;;14.97;;
11228;SDS011;5671;47.936;8.716;2023-07-02T07:58:05;19.47;;;14.93;;
11228;SDS011;5671;47.936;8.716;2023-07-02T08:00:32;19.93;;;16.07;;
11228;SDS011;5671;47.936;8.716;2023-07-02T08:02:59;22.03;;;16.13;;
11228;SDS011;5671;47.936;8.716;2023-07-02T08:05:27;19.50;;;14.10;;
11228;SDS011;5671;47.936;8.716;2023-07-02T08:07:54;20.17;;;15.90;;
11228;SDS011;5671;47.936;8.716;2023-07-02T08:10:22;19.47;;;15.50;;
11228;SDS011;5671;47.936;8.716;2023-07-02T08:12:51;21.47;;;16.87;;
11228;SDS011;5671;47.936;8.716;2023-07-02T08:15:18;20.53;;;16.03;;
11228;SDS011;5671;47.936;8.716;2023-07-02T08:17:45;22.40;;;15.60;;
11228;SDS011;5671;47.936;8.716;2023-07-02T08:20:12;21.30;;;16.63;;
11228;SDS011;5671;47.936;8.716;2023-07-02T08:22:39;19.43;;;16.53;;
11228;SDS011;5671;47.936;8.716;2023-07-02T08:25:07;20.10;;;16.47;;
11228;SDS011;5671;47.936;8.716;2023-07-02T08:27:34;20.77;;;17.63;;
11228;SDS011;5671;47.936;8.716;2023-07-02T08:30:03;20.67;;;16.83;;
11228;SDS011;5671;47.936;8.716;2023-07-02T08:32:30;26.03;;;18.47;;
11228;SDS011;5671;47.936;8.716;2023-07-02T08:34:57;23.07;;;17.93;;
11228;SDS011;5671;47.936;8.716;2023-07-02T08:37:24;24.93;;;16.70;;
11228;SDS011;5671;47.936;8.716;2023-07-02T08:39:51;21.83;;;16.33;;
11228;SDS011;5671;47.936;8.716;2023-07-02T08:42:18;20.27;;;16.97;;
11228;SDS011;5671;47.936;8.716;2023-07-02T08:44:45;18.20;;;15.87;;
11228;SDS011;5671;47.936;8.716;2023-07-02T08:47:14;19.80;;;15.80;;
11228;SDS011;5671;47.936;8.716;2023-07-02T08:49:41;22.93;;;17.93;;
11228;SDS011;5671;47.936;8.716;2023-07-02T08:52:08;22.13;;;17.80;;
11228;SDS011;5671;47.936;8.716;2023-07-02T08:54:35;20.37;;;16.30;;
11228;SDS011;5671;47.936;8.716;2023-07-02T08:57:03;19.33;;;16.60;;
11228;SDS011;5671;47.936;8.716;2023-07-02T08:59:31;22.87;;;18.57;;
11228;SDS011;5671;47.936;8.716;2023-07-02T09:01:58;18.33;;;16.43;;
11228;SDS011;5671;47.936;8.716;2023-07-02T09:04:26;19.67;;;16.47;;
11228;SDS011;5671;47.936;8.716;2023-07-02T09:07:03;19.70;;;17.00;;
11228;SDS011;5671;47.936;8.716;2023-07-02T09:09:30;20.07;;;17.37;;
11228;SDS011;5671;47.936;8.716;2023-07-02T09:11:57;19.67;;;16.50;;
11228;SDS011;5671;47.936;8.716;2023-07-02T09:14:25;21.73;;;17.83;;
11228;SDS011;5671;47.936;8.716;2023-07-02T09:17:02;20.10;;;17.63;;
11228;SDS011;5671;47.936;8.716;2023-07-02T09:19:32;20.57;;;17.57;;
11228;SDS011;5671;47.936;8.716;2023-07-02T09:22:00;21.63;;;17.47;;
11228;SDS011;5671;47.936;8.716;2023-07-02T09:24:28;19.27;;;17.03;;
11228;SDS011;5671;47.936;8.716;2023-07-02T09:26:56;20.20;;;17.10;;
11228;SDS011;5671;47.936;8.716;2023-07-02T09:29:24;20.37;;;17.77;;
11228;SDS011;5671;47.936;8.716;2023-07-02T09:31:53;19.67;;;16.70;;
11228;SDS011;5671;47.936;8.716;2023-07-02T09:34:26;21.27;;;16.73;;
11228;SDS011;5671;47.936;8.716;2023-07-02T09:36:56;18.90;;;16.90;;
11228;SDS011;5671;47.936;8.716;2023-07-02T09:39:25;22.10;;;15.90;;
11228;SDS011;5671;47.936;8.716;2023-07-02T09:41:54;17.97;;;16.10;;
11228;SDS011;5671;47.936;8.716;2023-07-02T09:44:27;19.17;;;14.90;;
11228;SDS011;5671;47.936;8.716;2023-07-02T09:46:58;16.80;;;15.00;;
11228;SDS011;5671;47.936;8.716;2023-07-02T09:49:31;17.27;;;14.70;;
11228;SDS011;5671;47.936;8.716;2023-07-02T09:52:00;18.37;;;15.00;;
11228;SDS011;5671;47.936;8.716;2023-07-02T09:54:28;16.50;;;14.73;;
11228;SDS011;5671;47.936;8.716;2023-07-02T09:56:55;18.77;;;16.43;;
11228;SDS011;5671;47.936;8.716;2023-07-02T09:59:22;22.40;;;16.27;;
11228;SDS011;5671;47.936;8.716;2023-07-02T10:01:50;19.23;;;15.57;;
11228;SDS011;5671;47.936;8.716;2023-07-02T10:04:17;19.33;;;15.63;;
11228;SDS011;5671;47.936;8.716;2023-07-02T10:06:46;17.57;;;15.60;;
11228;SDS011;5671;47.936;8.716;2023-07-02T10:09:15;17.40;;;13.93;;
11228;SDS011;5671;47.936;8.716;2023-07-02T10:11:42;20.07;;;15.90;;
11228;SDS011;5671;47.936;8.716;2023-07-02T10:14:09;16.47;;;14.63;;
11228;SDS011;5671;47.936;8.716;2023-07-02T10:16:48;18.83;;;14.73;;
11228;SDS011;5671;47.936;8.716;2023-07-02T10:19:19;19.87;;;15.70;;
11228;SDS011;5671;47.936;8.716;2023-07-02T10:21:47;18.47;;;16.37;;
11228;SDS011;5671;47.936;8.716;2023-07-02T10:24:28;18.40;;;15.50;;
11228;SDS011;5671;47.936;8.716;2023-07-02T10:26:55;18.77;;;16.63;;
11228;SDS011;5671;47.936;8.716;2023-07-02T10:29:23;19.97;;;15.13;;
11228;SDS011;5671;47.936;8.716;2023-07-02T10:31:51;16.23;;;14.30;;
11228;SDS011;5671;47.936;8.716;2023-07-02T10:34:29;15.60;;;14.00;;
11228;SDS011;5671;47.936;8.716;2023-07-02T10:36:56;16.93;;;14.40;;
11228;SDS011;5671;47.936;8.716;2023-07-02T10:39:24;14.43;;;12.80;;
11228;SDS011;5671;47.936;8.716;2023-07-02T10:41:52;13.93;;;12.30;;
11228;SDS011;5671;47.936;8.716;2023-07-02T10:44:29;15.30;;;12.47;;
11228;SDS011;5671;47.936;8.716;2023-07-02T10:46:57;13.73;;;12.33;;
11228;SDS011;5671;47.936;8.716;2023-07-02T10:49:30;14.87;;;12.20;;
11228;SDS011;5671;47.936;8.716;2023-07-02T10:51:58;13.27;;;11.90;;
11228;SDS011;5671;47.936;8.716;2023-07-02T10:54:26;17.20;;;13.03;;
11228;SDS011;5671;47.936;8.716;2023-07-02T10:57:06;14.33;;;12.53;;
11228;SDS011;5671;47.936;8.716;2023-07-02T10:59:33;12.47;;;11.17;;
11228;SDS011;5671;47.936;8.716;2023-07-02T11:02:00;14.30;;;11.87;;
11228;SDS011;5671;47.936;8.716;2023-07-02T11:04:28;12.43;;;10.83;;
11228;SDS011;5671;47.936;8.716;2023-07-02T11:06:55;14.03;;;12.03;;
11228;SDS011;5671;47.936;8.716;2023-07-02T11:09:22;14.30;;;12.83;;
11228;SDS011;5671;47.936;8.716;2023-07-02T11:11:50;11.63;;;10.50;;
11228;SDS011;5671;47.936;8.716;2023-07-02T11:14:27;13.53;;;10.70;;
11228;SDS011;5671;47.936;8.716;2023-07-02T11:16:55;12.60;;;11.20;;
11228;SDS011;5671;47.936;8.716;2023-07-02T11:19:22;14.17;;;12.33;;
11228;SDS011;5671;47.936;8.716;2023-07-02T11:21:53;12.73;;;11.20;;
11228;SDS011;5671;47.936;8.716;2023-07-02T11:24:27;12.97;;;11.67;;
11228;SDS011;5671;47.936;8.716;2023-07-02T11:26:56;11.57;;;10.37;;
11228;SDS011;5671;47.936;8.716;2023-07-02T11:29:23;10.93;;;9.77;;
11228;SDS011;5671;47.936;8.716;2023-07-02T11:31:51;13.17;;;9.20;;
11228;SDS011;5671;47.936;8.716;2023-07-02T11:34:19;10.90;;;8.40;;
11228;SDS011;5671;47.936;8.716;2023-07-02T11:36:49;9.30;;;8.30;;
11228;SDS011;5671;47.936;8.716;2023-07-02T11:39:18;10.53;;;9.40;;
11228;SDS011;5671;47.936;8.716;2023-07-02T11:41:47;11.07;;;9.00;;
11228;SDS011;5671;47.936;8.716;2023-07-02T11:44:15;12.10;;;9.20;;
11228;SDS011;5671;47.936;8.716;2023-07-02T11:46:42;10.03;;;8.93;;
11228;SDS011;5671;47.936;8.716;2023-07-02T11:49:10;10.33;;;8.83;;
11228;SDS011;5671;47.936;8.716;2023-07-02T11:51:37;14.07;;;8.07;;
11228;SDS011;5671;47.936;8.716;2023-07-02T11:54:04;9.27;;;8.13;;
11228;SDS011;5671;47.936;8.716;2023-07-02T11:56:32;9.43;;;8.37;;
11228;SDS011;5671;47.936;8.716;2023-07-02T11:58:59;10.97;;;9.07;;
11228;SDS011;5671;47.936;8.716;2023-07-02T12:01:26;9.97;;;8.93;;
11228;SDS011;5671;47.936;8.716;2023-07-02T12:03:53;10.80;;;7.43;;
11228;SDS011;5671;47.936;8.716;2023-07-02T12:06:21;10.03;;;8.67;;
11228;SDS011;5671;47.936;8.716;2023-07-02T12:08:51;10.67;;;8.80;;
11228;SDS011;5671;47.936;8.716;2023-07-02T12:11:18;8.90;;;7.70;;
11228;SDS011;5671;47.936;8.716;2023-07-02T12:13:45;8.97;;;8.07;;
11228;SDS011;5671;47.936;8.716;2023-07-02T12:16:12;10.03;;;8.33;;
11228;SDS011;5671;47.936;8.716;2023-07-02T12:18:39;8.97;;;8.00;;
11228;SDS011;5671;47.936;8.716;2023-07-02T12:21:06;9.93;;;7.57;;
11228;SDS011;5671;47.936;8.716;2023-07-02T12:23:34;13.77;;;7.60;;
11228;SDS011;5671;47.936;8.716;2023-07-02T12:26:01;11.17;;;7.43;;
11228;SDS011;5671;47.936;8.716;2023-07-02T12:28:28;8.67;;;7.77;;
11228;SDS011;5671;47.936;8.716;2023-07-02T12:30:55;7.50;;;6.57;;
11228;SDS011;5671;47.936;8.716;2023-07-02T12:33:22;8.97;;;6.83;;
11228;SDS011;5671;47.936;8.716;2023-07-02T12:35:48;12.73;;;8.10;;
11228;SDS011;5671;47.936;8.716;2023-07-02T12:38:15;13.80;;;12.00;;
11228;SDS011;5671;47.936;8.716;2023-07-02T12:40:43;11.97;;;10.67;;
11228;SDS011;5671;47.936;8.716;2023-07-02T12:43:10;7.73;;;6.37;;
11228;SDS011;5671;47.936;8.716;2023-07-02T12:45:37;8.03;;;6.80;;
11228;SDS011;5671;47.936;8.716;2023-07-02T12:48:04;7.73;;;6.37;;
11228;SDS011;5671;47.936;8.716;2023-07-02T12:50:31;6.40;;;5.80;;
11228;SDS011;5671;47.936;8.716;2023-07-02T12:52:58;9.13;;;5.83;;
11228;SDS011;5671;47.936;8.716;2023-07-02T12:55:24;7.67;;;5.63;;
11228;SDS011;5671;47.936;8.716;2023-07-02T12:57:52;7.73;;;6.27;;
11228;SDS011;5671;47.936;8.716;2023-07-02T13:00:19;7.87;;;6.00;;
11228;SDS011;5671;47.936;8.716;2023-07-02T13:02:46;6.97;;;5.67;;
11228;SDS011;5671;47.936;8.716;2023-07-02T13:05:13;6.73;;;5.97;;
11228;SDS011;5671;47.936;8.716;2023-07-02T13:07:40;7.70;;;6.07;;
11228;SDS011;5671;47.936;8.716;2023-07-02T13:10:07;10.50;;;5.40;;
11228;SDS011;5671;47.936;8.716;2023-07-02T13:12:34;6.90;;;5.63;;
11228;SDS011;5671;47.936;8.716;2023-07-02T13:15:03;8.43;;;5.53;;
11228;SDS011;5671;47.936;8.716;2023-07-02T13:17:30;7.00;;;6.30;;
11228;SDS011;5671;47.936;8.716;2023-07-02T13:19:58;6.63;;;5.80;;
11228;SDS011;5671;47.936;8.716;2023-07-02T13:22:25;7.73;;;5.97;;
11228;SDS011;5671;47.936;8.716;2023-07-02T13:24:52;6.63;;;6.00;;
11228;SDS011;5671;47.936;8.716;2023-07-02T13:27:20;7.17;;;6.37;;
11228;SDS011;5671;47.936;8.716;2023-07-02T13:29:47;8.13;;;6.43;;
11228;SDS011;5671;47.936;8.716;2023-07-02T13:32:15;8.17;;;6.00;;
11228;SDS011;5671;47.936;8.716;2023-07-02T13:34:42;6.47;;;5.80;;
11228;SDS011;5671;47.936;8.716;2023-07-02T13:37:09;10.40;;;6.73;;
11228;SDS011;5671;47.936;8.716;2023-07-02T13:39:36;6.43;;;5.83;;
11228;SDS011;5671;47.936;8.716;2023-07-02T13:42:03;7.17;;;6.47;;
11228;SDS011;5671;47.936;8.716;2023-07-02T13:44:31;8.50;;;5.90;;
11228;SDS011;5671;47.936;8.716;2023-07-02T13:46:58;8.23;;;6.10;;
11228;SDS011;5671;47.936;8.716;2023-07-02T13:49:28;8.13;;;7.20;;
11228;SDS011;5671;47.936;8.716;2023-07-02T13:51:56;8.20;;;6.97;;
11228;SDS011;5671;47.936;8.716;2023-07-02T13:54:22;7.93;;;6.27;;
11228;SDS011;5671;47.936;8.716;2023-07-02T13:56:49;7.33;;;6.10;;
11228;SDS011;5671;47.936;8.716;2023-07-02T13:59:18;7.23;;;6.50;;
11228;SDS011;5671;47.936;8.716;2023-07-02T14:01:45;7.67;;;6.53;;
11228;SDS011;5671;47.936;8.716;2023-07-02T14:04:13;8.20;;;6.87;;
11228;SDS011;5671;47.936;8.716;2023-07-02T14:06:41;9.73;;;6.63;;
11228;SDS011;5671;47.936;8.716;2023-07-02T14:09:08;7.00;;;6.30;;
11228;SDS011;5671;47.936;8.716;2023-07-02T14:11:37;7.37;;;6.67;;
11228;SDS011;5671;47.936;8.716;2023-07-02T14:14:06;8.47;;;6.63;;
11228;SDS011;5671;47.936;8.716;2023-07-02T14:16:37;7.70;;;6.87;;
11228;SDS011;5671;47.936;8.716;2023-07-02T14:19:04;7.90;;;6.53;;
11228;SDS011;5671;47.936;8.716;2023-07-02T14:21:31;10.07;;;7.37;;
11228;SDS011;5671;47.936;8.716;2023-07-02T14:23:57;7.90;;;7.10;;
11228;SDS011;5671;47.936;8.716;2023-07-02T14:26:24;8.97;;;7.47;;
11228;SDS011;5671;47.936;8.716;2023-07-02T14:28:52;8.93;;;7.27;;
11228;SDS011;5671;47.936;8.716;2023-07-02T14:31:18;8.33;;;7.33;;
11228;SDS011;5671;47.936;8.716;2023-07-02T14:33:47;8.23;;;7.43;;
11228;SDS011;5671;47.936;8.716;2023-07-02T14:36:14;11.80;;;8.17;;
11228;SDS011;5671;47.936;8.716;2023-07-02T14:38:40;9.03;;;8.13;;
11228;SDS011;5671;47.936;8.716;2023-07-02T14:41:07;8.83;;;7.77;;
11228;SDS011;5671;47.936;8.716;2023-07-02T14:43:34;9.77;;;7.23;;
11228;SDS011;5671;47.936;8.716;2023-07-02T14:46:02;9.30;;;8.30;;
11228;SDS011;5671;47.936;8.716;2023-07-02T14:48:30;8.83;;;7.93;;
11228;SDS011;5671;47.936;8.716;2023-07-02T14:50:59;12.47;;;8.17;;
11228;SDS011;5671;47.936;8.716;2023-07-02T14:53:27;11.83;;;9.10;;